Reddick, Florida
Current Conditions -  °F | °C
As of 12:50 PM on Thursday 23 Oct 2014 (Local Time) from KOCF Reporting Station
Clear Clear  
Wind Chill: 75°   Ceiling: Unl
Heat Index: 75°   Visibility: 10mi
Dew Point: 52°   Wind: 10mph
Humidity: 44%   Direction: 50°NE
Pressure: 30.04"   Gusts: NA
Location:  29.37°N, 82.2°W
Report Text: KOCF 231650Z 05009KT 10SM CLR 24/11 A3004
Loading
Personal Weather Stations






























Interactive Weather Map
Tropical Storm Tracking
New forecast layout! Learn more

10-Day Weather Forecast

Advertisements
Track Severe Weather on mobile